Time;durP1;ratioP1;P1;durP2;ratioP2;P2;SDS_P1;SDS_P2;PMS_P1;PMS_P2;Temp;Humidity;BMP_temperature;BMP_pressure;BME280_temperature;BME280_humidity;BME280_pressure;Samples;Min_cycle;Max_cycle;Signal;HPM_P1;HPM_P2
2021/12/31 00:02:15;;;;;;;2.38;1.30;;;11.50;99.90;;;;;;5016740;28;20481;-76
2021/12/31 00:04:40;;;;;;;3.33;1.25;;;11.40;99.90;;;;;;5016246;28;20112;-76
2021/12/31 00:07:06;;;;;;;3.40;1.70;;;11.40;99.90;;;;;;5035987;28;20029;-76
2021/12/31 00:09:32;;;;;;;3.65;1.75;;;11.30;99.90;;;;;;5012519;28;20036;-76
2021/12/31 00:11:57;;;;;;;6.03;2.00;;;11.30;99.90;;;;;;5041402;28;20075;-75
2021/12/31 00:14:23;;;;;;;4.78;2.20;;;11.20;99.90;;;;;;5032764;28;20496;-75
2021/12/31 00:16:49;;;;;;;4.85;2.03;;;11.20;99.90;;;;;;5030715;28;20115;-76
2021/12/31 00:19:15;;;;;;;4.13;2.00;;;11.10;99.90;;;;;;5031354;28;20032;-76
2021/12/31 00:21:45;;;;;;;3.50;1.98;;;11.10;99.90;;;;;;5031827;28;20021;-75
2021/12/31 00:24:11;;;;;;;3.38;1.90;;;11.00;99.90;;;;;;5029240;28;20490;-76
2021/12/31 00:26:37;;;;;;;4.45;2.30;;;11.00;99.90;;;;;;5016325;28;20061;-76
2021/12/31 00:29:02;;;;;;;5.13;2.45;;;11.00;99.90;;;;;;5033239;28;20083;-75
2021/12/31 00:31:28;;;;;;;5.63;2.45;;;10.90;99.90;;;;;;5035755;28;20049;-75
2021/12/31 00:33:54;;;;;;;3.58;2.17;;;10.90;99.90;;;;;;5015999;28;20027;-75
2021/12/31 00:36:20;;;;;;;5.35;2.35;;;10.90;99.90;;;;;;5032870;28;25292;-75
2021/12/31 00:38:45;;;;;;;3.53;2.35;;;10.80;99.90;;;;;;5029295;28;20026;-75
2021/12/31 00:41:11;;;;;;;4.95;2.13;;;10.80;99.90;;;;;;5022888;28;20030;-76
2021/12/31 00:43:37;;;;;;;3.50;2.30;;;10.70;99.90;;;;;;5031219;28;20036;-76
2021/12/31 00:46:03;;;;;;;3.33;1.52;;;10.70;99.90;;;;;;5017928;28;20065;-76
2021/12/31 00:48:29;;;;;;;3.88;1.67;;;10.70;99.90;;;;;;5028606;28;20362;-76
2021/12/31 00:50:56;;;;;;;3.97;1.60;;;10.60;99.90;;;;;;5024950;28;20068;-76
2021/12/31 00:53:23;;;;;;;6.90;1.83;;;10.60;99.90;;;;;;5034596;28;20035;-76
2021/12/31 00:55:48;;;;;;;2.65;1.65;;;10.60;99.90;;;;;;5031413;28;20462;-76
2021/12/31 00:58:14;;;;;;;3.45;1.73;;;10.60;99.90;;;;;;5028866;28;20027;-75
2021/12/31 01:00:40;;;;;;;3.03;1.60;;;10.50;99.90;;;;;;5027370;28;20543;-76
2021/12/31 01:03:06;;;;;;;4.50;1.92;;;10.50;99.90;;;;;;5020373;28;20067;-76
2021/12/31 01:05:32;;;;;;;4.35;2.42;;;10.40;99.90;;;;;;5037864;28;20083;-75
2021/12/31 01:07:58;;;;;;;3.45;1.60;;;10.40;99.90;;;;;;5027571;28;20104;-76
2021/12/31 01:10:26;;;;;;;3.38;2.00;;;10.30;99.90;;;;;;5033730;28;20099;-76
2021/12/31 01:12:53;;;;;;;7.88;2.42;;;10.30;99.90;;;;;;5035119;28;20018;-76
2021/12/31 01:15:34;;;;;;;3.85;2.30;;;10.20;99.90;;;;;;5036201;28;20128;-76
2021/12/31 01:20:26;;;;;;;5.93;2.42;;;10.20;99.90;;;;;;5028488;28;20036;-76
2021/12/31 01:22:51;;;;;;;4.18;2.35;;;10.10;99.90;;;;;;5019556;23;20038;-74
2021/12/31 01:25:17;;;;;;;3.10;2.10;;;10.10;99.90;;;;;;4990748;28;20120;-74
2021/12/31 01:27:43;;;;;;;4.88;2.75;;;10.00;99.90;;;;;;5010827;28;20049;-74
2021/12/31 01:30:13;;;;;;;4.03;2.25;;;10.00;99.90;;;;;;4993987;28;20037;-73
2021/12/31 01:32:40;;;;;;;4.00;2.20;;;10.00;99.90;;;;;;5008786;28;20036;-74
2021/12/31 01:35:06;;;;;;;4.13;2.03;;;9.90;99.90;;;;;;5010803;28;20026;-74
2021/12/31 01:37:32;;;;;;;5.65;2.80;;;9.90;99.90;;;;;;4990134;28;20041;-74
2021/12/31 01:39:59;;;;;;;2.95;2.03;;;9.90;99.90;;;;;;4993769;28;20441;-74
2021/12/31 01:42:31;;;;;;;5.03;2.17;;;9.90;99.90;;;;;;5001354;28;20042;-74
2021/12/31 01:45:02;;;;;;;4.68;2.00;;;9.80;99.90;;;;;;5006485;28;20018;-74
2021/12/31 01:47:35;;;;;;;3.20;1.90;;;9.80;99.90;;;;;;4984517;28;20084;-74
2021/12/31 01:50:07;;;;;;;5.40;2.42;;;9.70;99.90;;;;;;4988519;28;20502;-74
2021/12/31 01:52:34;;;;;;;4.65;2.22;;;9.70;99.90;;;;;;5001519;28;20493;-74
2021/12/31 01:55:01;;;;;;;4.93;2.25;;;9.60;99.90;;;;;;5006553;28;20034;-74
2021/12/31 01:57:28;;;;;;;4.88;2.60;;;9.60;99.90;;;;;;4991643;28;20553;-73
2021/12/31 01:59:54;;;;;;;5.20;2.58;;;9.50;99.90;;;;;;4993573;28;20112;-74
2021/12/31 02:02:20;;;;;;;5.68;2.92;;;9.50;99.90;;;;;;5004533;28;20485;-74
2021/12/31 02:04:46;;;;;;;5.35;2.20;;;9.50;99.90;;;;;;4994832;28;20026;-74
2021/12/31 02:07:12;;;;;;;9.43;2.90;;;9.40;99.90;;;;;;4994108;28;20493;-74
2021/12/31 02:09:45;;;;;;;3.50;2.40;;;9.40;99.90;;;;;;5007529;28;20038;-74
2021/12/31 02:12:11;;;;;;;4.70;2.75;;;9.30;99.90;;;;;;5010682;28;20065;-74
2021/12/31 02:14:37;;;;;;;4.35;2.33;;;9.30;99.90;;;;;;5001967;28;20053;-74
2021/12/31 02:17:09;;;;;;;3.33;2.25;;;9.30;99.90;;;;;;5006268;28;20715;-74
2021/12/31 02:19:35;;;;;;;5.32;2.28;;;9.30;99.90;;;;;;5007102;28;20026;-74
2021/12/31 02:22:01;;;;;;;4.57;2.47;;;9.30;99.90;;;;;;5010600;28;20448;-74
2021/12/31 02:24:27;;;;;;;5.40;2.08;;;9.20;99.90;;;;;;5014558;28;20057;-74
2021/12/31 02:26:52;;;;;;;3.60;1.98;;;9.20;99.90;;;;;;5005166;28;20099;-74
2021/12/31 02:29:19;;;;;;;5.40;2.40;;;9.20;99.90;;;;;;5005997;28;20072;-74
2021/12/31 02:31:45;;;;;;;4.38;2.15;;;9.10;99.90;;;;;;5006589;28;20058;-74
2021/12/31 02:34:11;;;;;;;5.63;2.58;;;9.10;99.90;;;;;;4991829;28;20084;-74
2021/12/31 02:36:37;;;;;;;5.72;2.50;;;9.10;99.90;;;;;;5009305;28;20064;-74
2021/12/31 02:39:03;;;;;;;4.18;2.33;;;9.10;99.90;;;;;;4994005;28;20341;-74
2021/12/31 02:41:29;;;;;;;2.85;1.85;;;9.10;99.90;;;;;;5006989;28;20034;-74
2021/12/31 02:43:55;;;;;;;6.10;2.20;;;9.10;99.90;;;;;;5012110;28;20033;-74
2021/12/31 02:46:21;;;;;;;3.63;1.42;;;9.10;99.90;;;;;;5002532;28;20031;-73
2021/12/31 02:48:55;;;;;;;4.32;1.42;;;9.10;99.90;;;;;;5010287;28;20028;-74
2021/12/31 02:51:21;;;;;;;2.55;1.50;;;9.00;99.90;;;;;;5002825;28;20454;-74
2021/12/31 02:53:51;;;;;;;6.15;1.85;;;9.00;99.90;;;;;;4992832;28;20041;-74
2021/12/31 02:56:18;;;;;;;7.35;2.28;;;8.90;99.90;;;;;;5013766;28;20091;-74
2021/12/31 02:58:44;;;;;;;3.58;1.65;;;8.90;99.90;;;;;;5009434;28;20394;-75
2021/12/31 03:01:10;;;;;;;3.80;1.50;;;8.90;99.90;;;;;;4994620;28;20025;-74
2021/12/31 03:03:36;;;;;;;4.13;1.30;;;8.90;99.90;;;;;;5014040;28;20037;-74
2021/12/31 03:06:04;;;;;;;2.15;1.45;;;8.90;99.90;;;;;;5007051;28;20030;-74
2021/12/31 03:08:33;;;;;;;4.15;1.60;;;8.90;99.90;;;;;;5010140;28;20032;-75
2021/12/31 03:11:01;;;;;;;4.20;1.70;;;8.80;99.90;;;;;;5011887;28;20538;-74
2021/12/31 03:13:29;;;;;;;3.00;1.35;;;8.80;99.90;;;;;;4999953;28;20327;-74
2021/12/31 03:15:55;;;;;;;3.35;1.67;;;8.80;99.90;;;;;;5011653;28;20061;-74
2021/12/31 03:18:22;;;;;;;2.83;1.50;;;8.80;99.90;;;;;;5010837;28;20033;-74
2021/12/31 03:21:48;;;;;;;1.52;1.00;;;8.70;99.90;;;;;;5009792;28;20034;-73
2021/12/31 03:23:42;;;;;;;2.33;1.33;;;8.70;99.90;;;;;;4998364;28;20034;-74
2021/12/31 03:26:08;;;;;;;3.03;1.60;;;8.70;99.90;;;;;;4994326;28;20025;-75
2021/12/31 03:28:34;;;;;;;2.50;1.20;;;8.70;99.90;;;;;;5012657;28;20101;-74
2021/12/31 03:30:59;;;;;;;3.55;1.45;;;8.70;99.90;;;;;;4997467;28;20022;-74
2021/12/31 03:33:25;;;;;;;1.77;1.02;;;8.70;99.90;;;;;;5010471;28;20038;-74
2021/12/31 03:35:51;;;;;;;3.08;0.90;;;8.70;99.90;;;;;;5012197;28;20113;-74
2021/12/31 03:38:16;;;;;;;2.72;1.17;;;8.70;99.90;;;;;;5014439;28;20030;-74
2021/12/31 03:40:42;;;;;;;5.40;1.58;;;8.70;99.90;;;;;;5009655;28;20034;-74
2021/12/31 03:43:08;;;;;;;2.83;1.35;;;8.70;99.90;;;;;;5006864;28;20461;-74
2021/12/31 03:45:35;;;;;;;3.05;1.30;;;8.60;99.90;;;;;;4988658;28;20218;-74
2021/12/31 03:48:01;;;;;;;3.35;1.05;;;8.60;99.90;;;;;;5010275;28;20040;-74
2021/12/31 03:50:26;;;;;;;2.33;1.10;;;8.50;99.90;;;;;;5011685;28;20021;-74
2021/12/31 03:52:52;;;;;;;10.20;1.40;;;8.50;99.90;;;;;;5008571;28;20483;-74
2021/12/31 03:55:18;;;;;;;2.22;1.50;;;8.50;99.90;;;;;;5008320;28;20514;-74
2021/12/31 03:57:43;;;;;;;3.33;2.08;;;8.50;99.90;;;;;;5008928;28;20120;-74
2021/12/31 04:00:11;;;;;;;5.95;1.40;;;8.50;99.90;;;;;;5005363;28;20049;-74
2021/12/31 04:02:37;;;;;;;2.65;1.40;;;8.50;99.90;;;;;;5008076;28;20026;-74
2021/12/31 04:05:03;;;;;;;6.47;1.88;;;8.50;99.90;;;;;;4996182;28;20544;-74
2021/12/31 04:07:29;;;;;;;3.53;1.58;;;8.40;99.90;;;;;;5012641;28;20030;-74
2021/12/31 04:09:55;;;;;;;2.90;1.50;;;8.40;99.90;;;;;;5016111;28;20092;-74
2021/12/31 04:12:20;;;;;;;3.00;1.30;;;8.30;99.90;;;;;;5010987;28;20052;-75
2021/12/31 04:14:46;;;;;;;3.55;1.70;;;8.30;99.90;;;;;;5013184;28;20447;-74
2021/12/31 04:17:12;;;;;;;2.35;1.33;;;8.20;99.90;;;;;;5011775;28;20036;-74
2021/12/31 04:19:38;;;;;;;2.72;1.40;;;8.10;99.90;;;;;;5009818;28;20058;-74
2021/12/31 04:22:07;;;;;;;4.07;1.70;;;8.10;99.90;;;;;;4986711;28;20094;-74
2021/12/31 04:27:11;;;;;;;3.53;2.10;;;8.00;99.90;;;;;;5010166;28;20025;-74
2021/12/31 04:29:37;;;;;;;8.85;2.70;;;8.00;99.90;;;;;;5012103;28;20061;-74
2021/12/31 04:32:03;;;;;;;5.10;2.15;;;8.00;99.90;;;;;;4993625;28;20532;-74
2021/12/31 04:34:29;;;;;;;4.43;1.92;;;7.90;99.90;;;;;;5009692;28;20083;-74
2021/12/31 04:36:55;;;;;;;4.75;2.00;;;7.90;99.90;;;;;;5010427;28;20426;-75
2021/12/31 04:39:21;;;;;;;3.22;1.70;;;7.80;99.90;;;;;;4998819;28;20037;-75
2021/12/31 04:41:47;;;;;;;4.25;1.80;;;7.80;99.90;;;;;;5008974;28;20390;-74
2021/12/31 04:44:12;;;;;;;8.27;1.90;;;7.70;99.90;;;;;;4999201;28;20072;-74
2021/12/31 04:46:39;;;;;;;2.83;1.73;;;7.60;99.90;;;;;;4999335;28;20026;-74
2021/12/31 04:49:06;;;;;;;8.38;2.47;;;7.60;99.90;;;;;;5007744;28;20050;-74
2021/12/31 04:51:33;;;;;;;3.83;1.70;;;7.60;99.90;;;;;;4993323;28;20040;-75
2021/12/31 04:53:58;;;;;;;4.95;2.03;;;7.50;99.90;;;;;;5013039;28;20116;-73
2021/12/31 04:56:24;;;;;;;5.57;2.30;;;7.50;99.90;;;;;;5012090;28;20139;-74
2021/12/31 04:58:50;;;;;;;4.05;2.40;;;7.60;99.90;;;;;;4993036;28;20511;-73
2021/12/31 05:01:17;;;;;;;6.85;2.92;;;7.50;99.90;;;;;;5005592;28;20053;-74
2021/12/31 05:03:42;;;;;;;3.88;2.17;;;7.50;99.90;;;;;;5007440;28;20052;-73
2021/12/31 05:06:08;;;;;;;3.38;1.92;;;7.50;99.90;;;;;;5013355;28;20058;-73
2021/12/31 05:08:34;;;;;;;3.97;2.08;;;7.50;99.90;;;;;;4991660;28;20026;-74
2021/12/31 05:11:00;;;;;;;3.72;2.15;;;7.40;99.90;;;;;;4996105;28;20040;-74
2021/12/31 05:13:25;;;;;;;4.68;2.30;;;7.40;99.90;;;;;;4997084;28;20096;-74
2021/12/31 05:15:53;;;;;;;4.93;2.28;;;7.40;99.90;;;;;;5011773;28;20069;-74
2021/12/31 05:18:18;;;;;;;3.33;2.08;;;7.40;99.90;;;;;;5010364;28;20026;-74
2021/12/31 05:20:44;;;;;;;5.65;2.33;;;7.40;99.90;;;;;;5011730;28;20042;-74
2021/12/31 05:23:10;;;;;;;4.30;1.88;;;7.40;99.90;;;;;;5009967;28;20414;-75
2021/12/31 05:25:36;;;;;;;5.55;1.92;;;7.40;99.90;;;;;;4994713;28;20045;-75
2021/12/31 05:28:01;;;;;;;5.90;2.75;;;7.30;99.90;;;;;;5007889;28;20029;-74
2021/12/31 05:30:27;;;;;;;2.33;1.55;;;7.30;99.90;;;;;;4986500;28;20034;-74
2021/12/31 05:32:53;;;;;;;6.03;1.90;;;7.30;99.90;;;;;;4991234;28;21254;-72
2021/12/31 05:35:19;;;;;;;5.05;1.95;;;7.30;99.90;;;;;;5015054;28;20029;-74
2021/12/31 05:37:45;;;;;;;3.55;1.20;;;7.30;99.90;;;;;;4986316;28;20040;-75
2021/12/31 05:40:11;;;;;;;3.47;1.75;;;7.30;99.90;;;;;;4999055;28;20061;-74
2021/12/31 05:42:37;;;;;;;4.28;1.67;;;7.20;99.90;;;;;;5005390;28;20049;-74
2021/12/31 05:45:04;;;;;;;5.90;1.45;;;7.20;99.90;;;;;;5004548;28;20025;-74
2021/12/31 05:47:29;;;;;;;5.07;1.63;;;7.20;99.90;;;;;;5003670;28;20073;-75
2021/12/31 05:49:55;;;;;;;4.78;1.70;;;7.20;99.90;;;;;;4993648;28;20018;-74
2021/12/31 05:52:21;;;;;;;6.10;2.08;;;7.20;99.90;;;;;;5014851;28;20028;-74
2021/12/31 05:54:47;;;;;;;4.78;1.50;;;7.10;99.90;;;;;;5011890;28;20026;-74
2021/12/31 05:57:13;;;;;;;2.10;1.08;;;7.10;99.90;;;;;;5009834;28;20691;-74
2021/12/31 05:59:39;;;;;;;3.28;1.33;;;7.10;99.90;;;;;;4994451;28;20029;-75
2021/12/31 06:02:05;;;;;;;4.25;1.33;;;7.00;99.90;;;;;;5023747;28;20034;-75
2021/12/31 06:04:30;;;;;;;2.47;1.20;;;7.00;99.90;;;;;;5013437;28;20065;-74
2021/12/31 06:06:57;;;;;;;7.13;1.80;;;7.00;99.90;;;;;;5014092;28;20025;-75
2021/12/31 06:09:22;;;;;;;3.97;1.90;;;7.00;99.90;;;;;;5011440;28;20029;-75
2021/12/31 06:11:48;;;;;;;3.45;2.28;;;7.00;99.90;;;;;;4998124;28;20018;-75
2021/12/31 06:14:14;;;;;;;4.57;1.65;;;7.00;99.90;;;;;;5008115;28;20026;-75
2021/12/31 06:16:45;;;;;;;2.20;1.23;;;7.00;99.90;;;;;;4993256;28;20384;-74
2021/12/31 06:19:12;;;;;;;4.70;1.70;;;7.00;99.90;;;;;;4999043;28;20037;-75
2021/12/31 06:21:40;;;;;;;2.55;1.63;;;7.00;99.90;;;;;;5016965;28;20025;-74
2021/12/31 06:24:06;;;;;;;3.58;1.35;;;7.10;99.90;;;;;;5017977;28;20029;-74
2021/12/31 06:26:33;;;;;;;5.82;4.22;;;7.00;99.90;;;;;;5010043;28;20094;-74
2021/12/31 06:28:58;;;;;;;2.90;2.03;;;7.10;99.90;;;;;;5015563;28;20018;-74
2021/12/31 06:31:25;;;;;;;3.55;1.50;;;7.00;99.90;;;;;;5003985;28;20037;-75
2021/12/31 06:33:50;;;;;;;2.03;1.30;;;7.10;99.90;;;;;;4994322;28;21021;-75
2021/12/31 06:36:17;;;;;;;1.67;1.33;;;7.00;99.90;;;;;;5012028;28;20045;-75
2021/12/31 06:38:43;;;;;;;3.75;1.50;;;7.00;99.90;;;;;;5004764;28;20410;-75
2021/12/31 06:41:09;;;;;;;2.03;1.40;;;7.00;99.90;;;;;;5011708;28;20029;-75
2021/12/31 06:43:35;;;;;;;5.47;2.30;;;7.10;99.90;;;;;;4987896;28;20061;-74
2021/12/31 06:46:01;;;;;;;3.17;1.42;;;7.00;99.90;;;;;;5011632;28;20094;-74
2021/12/31 06:48:27;;;;;;;3.25;1.60;;;7.00;99.90;;;;;;5010002;28;20037;-75
2021/12/31 06:50:53;;;;;;;5.57;2.03;;;7.00;99.90;;;;;;4988317;28;20018;-75
2021/12/31 06:53:18;;;;;;;3.08;1.80;;;6.90;99.90;;;;;;5009864;28;20053;-75
2021/12/31 06:55:44;;;;;;;3.80;1.67;;;6.90;99.90;;;;;;5011840;28;20018;-75
2021/12/31 06:58:10;;;;;;;3.25;1.85;;;6.80;99.90;;;;;;5010647;28;20524;-74
2021/12/31 07:00:36;;;;;;;7.90;2.95;;;6.80;99.90;;;;;;5009237;28;20025;-75
2021/12/31 07:03:12;;;;;;;4.35;2.45;;;6.80;99.90;;;;;;5008801;28;20037;-75
2021/12/31 07:05:41;;;;;;;4.60;2.50;;;6.70;99.90;;;;;;5012005;28;20502;-73
2021/12/31 07:08:06;;;;;;;8.65;5.95;;;6.70;99.90;;;;;;5015778;28;20497;-73
2021/12/31 07:10:33;;;;;;;4.22;2.78;;;6.70;99.90;;;;;;4993060;28;20128;-74
2021/12/31 07:13:00;;;;;;;5.90;3.15;;;6.70;99.90;;;;;;5008484;28;20030;-74
2021/12/31 07:15:26;;;;;;;3.55;2.22;;;6.60;99.90;;;;;;4994803;28;20179;-73
2021/12/31 07:17:52;;;;;;;5.03;2.08;;;6.60;99.90;;;;;;5012875;28;20113;-74
2021/12/31 07:20:19;;;;;;;4.45;2.10;;;6.60;99.90;;;;;;5003669;28;20157;-73
2021/12/31 07:22:45;;;;;;;4.03;2.08;;;6.70;99.90;;;;;;4990301;23;20042;-79
2021/12/31 07:25:10;;;;;;;3.88;2.45;;;6.70;99.90;;;;;;4991656;28;20026;-79
2021/12/31 07:27:36;;;;;;;4.88;2.20;;;6.70;99.90;;;;;;4990391;28;20023;-80
2021/12/31 07:30:03;;;;;;;3.03;1.98;;;6.80;99.90;;;;;;4999010;28;20057;-78
2021/12/31 07:32:28;;;;;;;2.42;1.65;;;6.80;99.90;;;;;;4988253;28;20018;-80
2021/12/31 07:34:54;;;;;;;3.67;1.35;;;6.80;99.90;;;;;;4989728;28;20022;-81
2021/12/31 07:37:19;;;;;;;4.60;1.77;;;6.80;99.90;;;;;;4967861;28;20038;-82
2021/12/31 07:39:47;;;;;;;2.50;1.65;;;6.70;99.90;;;;;;4980286;28;20027;-79
2021/12/31 07:42:13;;;;;;;3.20;1.60;;;6.70;99.90;;;;;;4965640;28;20023;-74
2021/12/31 07:44:39;;;;;;;2.50;1.45;;;6.80;99.90;;;;;;4988978;28;20394;-73
2021/12/31 07:47:05;;;;;;;2.70;1.67;;;6.80;99.90;;;;;;4989566;28;20219;-79
2021/12/31 07:49:31;;;;;;;5.15;2.38;;;6.90;99.90;;;;;;4994691;28;20033;-79
2021/12/31 07:51:57;;;;;;;3.88;2.13;;;6.90;99.90;;;;;;4992763;28;20036;-80
2021/12/31 07:54:22;;;;;;;3.28;1.70;;;6.90;99.90;;;;;;4990876;28;20030;-81
2021/12/31 07:56:48;;;;;;;6.13;3.45;;;6.80;99.90;;;;;;4992539;28;20066;-79
2021/12/31 07:59:14;;;;;;;6.15;3.97;;;6.90;99.90;;;;;;4980662;28;20026;-80
2021/12/31 08:01:39;;;;;;;4.57;2.35;;;6.80;99.90;;;;;;4986186;28;20026;-82
2021/12/31 08:04:05;;;;;;;2.92;1.90;;;6.90;99.90;;;;;;4987106;28;20112;-83
2021/12/31 08:06:31;;;;;;;5.32;2.53;;;6.90;99.90;;;;;;4973479;28;20374;-81
2021/12/31 08:08:56;;;;;;;6.85;2.92;;;6.90;99.90;;;;;;4992617;28;20037;-77
2021/12/31 08:11:22;;;;;;;4.78;3.00;;;6.90;99.90;;;;;;4991005;28;20018;-80
2021/12/31 08:13:48;;;;;;;6.15;4.25;;;6.90;99.90;;;;;;4977030;28;20067;-82
2021/12/31 08:16:14;;;;;;;5.50;3.25;;;7.00;99.90;;;;;;4982789;28;20114;-81
2021/12/31 08:18:40;;;;;;;6.07;3.28;;;7.00;99.90;;;;;;4987038;28;20479;-82
2021/12/31 08:21:07;;;;;;;8.73;5.85;;;7.10;99.90;;;;;;4988831;28;20022;-79
2021/12/31 08:23:32;;;;;;;6.80;4.68;;;7.10;99.90;;;;;;4992740;28;20031;-81
2021/12/31 08:26:01;;;;;;;5.97;3.88;;;7.20;99.90;;;;;;4972709;28;20026;-80
2021/12/31 08:28:27;;;;;;;5.47;3.53;;;7.20;99.90;;;;;;4988024;28;20121;-82
2021/12/31 08:30:52;;;;;;;6.28;3.47;;;7.30;99.90;;;;;;4985979;28;20105;-80
2021/12/31 08:33:18;;;;;;;7.25;3.60;;;7.40;99.90;;;;;;4986785;28;20037;-80
2021/12/31 08:35:44;;;;;;;4.95;3.35;;;7.40;99.90;;;;;;4972805;28;20521;-80
2021/12/31 08:38:10;;;;;;;6.00;4.00;;;7.40;99.90;;;;;;4988533;28;20400;-82
2021/12/31 08:40:35;;;;;;;7.20;4.13;;;7.50;99.90;;;;;;4987510;28;20033;-81
2021/12/31 08:43:02;;;;;;;8.10;4.57;;;7.50;99.90;;;;;;4985232;28;20048;-84
2021/12/31 08:45:29;;;;;;;7.30;4.80;;;7.60;99.90;;;;;;4967837;28;20044;-81
2021/12/31 08:47:57;;;;;;;8.75;5.95;;;7.60;99.90;;;;;;4984129;28;20628;-80
2021/12/31 08:50:23;;;;;;;8.32;5.40;;;7.70;99.90;;;;;;4991111;28;20029;-81
2021/12/31 08:52:49;;;;;;;7.82;5.40;;;7.70;99.90;;;;;;4973015;28;20054;-80
2021/12/31 08:55:15;;;;;;;11.18;6.57;;;7.70;99.90;;;;;;4969151;28;20065;-81
2021/12/31 08:57:42;;;;;;;8.52;4.65;;;7.70;99.90;;;;;;4971146;28;20486;-81
2021/12/31 09:00:08;;;;;;;5.10;3.33;;;7.60;99.90;;;;;;4989209;28;20538;-81
2021/12/31 09:02:35;;;;;;;6.45;3.72;;;7.60;99.90;;;;;;4990684;28;20034;-80
2021/12/31 09:05:01;;;;;;;7.03;4.18;;;7.60;99.90;;;;;;4990610;28;20027;-81
2021/12/31 09:07:27;;;;;;;5.82;4.05;;;7.60;99.90;;;;;;4990602;28;20458;-80
2021/12/31 09:09:53;;;;;;;7.45;4.50;;;7.70;99.90;;;;;;4984049;28;20050;-79
2021/12/31 09:12:18;;;;;;;6.85;4.07;;;7.70;99.90;;;;;;4991774;28;20045;-80
2021/12/31 09:14:44;;;;;;;5.18;3.70;;;7.80;99.90;;;;;;4971536;28;20449;-81
2021/12/31 09:17:10;;;;;;;4.82;3.58;;;7.80;99.90;;;;;;4984518;28;20034;-80
2021/12/31 09:19:35;;;;;;;7.15;4.18;;;7.80;99.90;;;;;;4985876;28;20034;-83
2021/12/31 09:22:04;;;;;;;6.18;3.88;;;7.90;99.90;;;;;;4992016;28;20030;-83
2021/12/31 09:24:30;;;;;;;4.53;2.60;;;8.00;99.90;;;;;;4975387;28;20120;-83
2021/12/31 09:26:56;;;;;;;5.95;2.63;;;8.00;99.90;;;;;;4977025;28;20026;-83
2021/12/31 09:29:23;;;;;;;4.80;2.75;;;8.10;99.90;;;;;;4979160;28;20034;-82
2021/12/31 09:31:50;;;;;;;3.20;2.33;;;8.10;99.90;;;;;;4993670;28;20019;-83
2021/12/31 09:34:16;;;;;;;5.18;3.08;;;8.20;99.90;;;;;;4994428;28;20104;-82
2021/12/31 09:36:41;;;;;;;4.65;3.22;;;8.20;99.90;;;;;;4996825;28;20094;-82
2021/12/31 09:39:07;;;;;;;3.92;2.80;;;8.30;99.90;;;;;;4999370;28;20033;-80
2021/12/31 09:41:33;;;;;;;3.65;2.42;;;8.40;99.90;;;;;;5020560;28;20058;-82
2021/12/31 09:43:58;;;;;;;4.55;2.60;;;8.40;99.90;;;;;;5005769;28;20030;-84
2021/12/31 09:46:24;;;;;;;5.40;3.15;;;8.50;99.90;;;;;;5008564;28;20494;-81
2021/12/31 09:48:50;;;;;;;5.88;2.80;;;8.50;99.90;;;;;;4997952;28;20022;-79
2021/12/31 09:51:17;;;;;;;5.38;3.05;;;8.60;99.90;;;;;;4993202;28;20022;-82
2021/12/31 09:53:50;;;;;;;5.93;2.92;;;8.70;99.90;;;;;;4983827;28;20446;-80
2021/12/31 09:56:16;;;;;;;6.53;2.47;;;8.70;99.90;;;;;;4992474;28;20585;-80
2021/12/31 09:58:42;;;;;;;3.65;2.42;;;8.80;99.90;;;;;;4991349;28;20030;-80
2021/12/31 10:01:09;;;;;;;4.05;2.30;;;8.90;99.90;;;;;;4996669;28;20068;-83
2021/12/31 10:03:36;;;;;;;23.17;8.18;;;8.90;99.90;;;;;;4992599;28;20038;-82
2021/12/31 10:06:10;;;;;;;13.85;5.50;;;9.00;99.90;;;;;;4990080;28;20158;-80
2021/12/31 10:08:44;;;;;;;7.22;4.05;;;9.20;99.90;;;;;;4994589;28;20153;-78
2021/12/31 10:11:18;;;;;;;10.50;5.28;;;9.20;99.90;;;;;;4989358;28;20024;-78
2021/12/31 10:13:58;;;;;;;6.55;4.32;;;9.30;99.90;;;;;;4992167;28;20034;-79
2021/12/31 10:16:39;;;;;;;9.00;5.28;;;9.40;99.90;;;;;;4973319;28;20849;-79
2021/12/31 10:19:07;;;;;;;8.27;4.70;;;9.60;99.90;;;;;;4999841;28;20117;-78
2021/12/31 10:21:41;;;;;;;6.95;3.90;;;9.70;99.90;;;;;;4987891;28;20470;-78
2021/12/31 10:24:23;;;;;;;6.82;4.65;;;9.80;99.90;;;;;;4988644;28;20431;-79
2021/12/31 10:26:54;;;;;;;6.88;3.80;;;10.00;99.90;;;;;;4976532;28;20054;-79
2021/12/31 10:29:21;;;;;;;8.40;5.30;;;10.10;99.90;;;;;;4975991;28;20040;-80
2021/12/31 10:31:52;;;;;;;6.68;4.20;;;10.20;99.90;;;;;;4990485;28;20475;-80
2021/12/31 10:34:31;;;;;;;6.20;3.88;;;10.20;99.90;;;;;;4996746;28;20038;-80
2021/12/31 10:37:14;;;;;;;7.07;3.88;;;10.40;99.90;;;;;;4994848;28;20034;-80
2021/12/31 10:40:01;;;;;;;7.32;4.00;;;10.50;99.90;;;;;;4991432;28;20084;-80
2021/12/31 10:42:33;;;;;;;6.35;4.53;;;10.50;99.90;;;;;;4979833;28;20165;-81
2021/12/31 10:45:01;;;;;;;7.07;5.30;;;10.60;99.90;;;;;;4994391;28;20030;-80
2021/12/31 10:47:34;;;;;;;6.20;3.88;;;10.60;99.90;;;;;;4986023;28;20026;-80
2021/12/31 10:50:03;;;;;;;12.18;6.13;;;10.70;99.90;;;;;;4987258;28;20093;-80
2021/12/31 10:53:01;;;;;;;7.50;5.03;;;10.80;99.90;;;;;;4984692;28;20025;-80
2021/12/31 10:55:34;;;;;;;6.10;4.20;;;10.80;99.90;;;;;;4982496;28;20109;-81
2021/12/31 10:58:03;;;;;;;6.63;3.38;;;10.80;99.90;;;;;;4969578;28;20026;-80
2021/12/31 11:00:34;;;;;;;5.93;3.60;;;10.90;99.90;;;;;;4967959;28;20129;-80
2021/12/31 11:02:59;;;;;;;6.07;4.00;;;10.90;99.90;;;;;;4987718;28;20031;-81
2021/12/31 11:05:25;;;;;;;6.78;4.25;;;10.90;99.90;;;;;;4990224;28;20498;-82
2021/12/31 11:07:52;;;;;;;6.95;3.78;;;11.00;99.90;;;;;;4991134;28;20113;-83
2021/12/31 11:10:24;;;;;;;9.07;5.75;;;11.10;99.90;;;;;;4987440;28;20586;-82
2021/12/31 11:12:52;;;;;;;11.20;6.60;;;11.10;99.90;;;;;;4994472;28;20049;-80
2021/12/31 11:15:18;;;;;;;7.25;4.70;;;11.20;99.90;;;;;;4973689;28;20034;-79
2021/12/31 11:17:44;;;;;;;7.53;3.78;;;11.20;99.90;;;;;;4980273;28;20038;-85
2021/12/31 11:20:11;;;;;;;7.97;4.93;;;11.30;99.90;;;;;;4970582;28;20510;-83
2021/12/31 11:22:37;;;;;;;4.72;2.85;;;11.30;99.90;;;;;;4975730;28;20495;-81
2021/12/31 11:25:24;;;;;;;138.75;52.20;;;11.40;99.90;;;;;;4970633;28;20022;-79
2021/12/31 11:27:51;;;;;;;22.02;9.30;;;11.40;99.90;;;;;;4971585;28;20018;-80
2021/12/31 11:30:28;;;;;;;10.40;3.95;;;11.50;99.90;;;;;;4992578;28;20159;-82
2021/12/31 11:32:56;;;;;;;6.05;3.30;;;11.60;99.90;;;;;;4991826;28;20030;-81
2021/12/31 11:35:58;;;;;;;8.30;3.58;;;11.60;99.90;;;;;;4990954;28;20056;-79
2021/12/31 11:38:24;;;;;;;5.20;2.80;;;11.60;99.90;;;;;;4964425;28;20045;-79
2021/12/31 11:41:01;;;;;;;5.13;2.90;;;11.70;99.90;;;;;;4989388;28;20391;-79
2021/12/31 11:43:28;;;;;;;4.15;2.90;;;11.70;99.90;;;;;;4973021;28;20402;-84
2021/12/31 11:46:12;;;;;;;4.72;3.05;;;11.60;99.90;;;;;;4979748;28;20061;-79
2021/12/31 11:48:51;;;;;;;5.22;2.75;;;11.70;99.90;;;;;;4987010;28;20105;-80
2021/12/31 11:51:26;;;;;;;4.55;2.83;;;11.60;99.90;;;;;;4988643;28;20026;-80
2021/12/31 11:53:58;;;;;;;5.60;2.60;;;11.70;99.90;;;;;;4989659;28;20030;-81
2021/12/31 11:56:47;;;;;;;3.50;2.83;;;11.70;99.90;;;;;;4989513;28;20034;-80
2021/12/31 11:59:13;;;;;;;4.22;2.38;;;11.60;99.90;;;;;;4982906;28;20038;-80
2021/12/31 12:01:48;;;;;;;4.90;2.53;;;11.70;99.90;;;;;;4989852;28;20045;-79
2021/12/31 12:04:40;;;;;;;4.72;2.45;;;11.80;99.90;;;;;;4987590;28;20037;-79
2021/12/31 12:07:26;;;;;;;4.95;2.75;;;11.90;99.90;;;;;;4986556;28;20041;-83
2021/12/31 12:09:52;;;;;;;5.20;2.55;;;11.90;99.90;;;;;;4988924;28;20116;-83
2021/12/31 12:12:23;;;;;;;7.13;3.47;;;12.00;99.90;;;;;;4997664;28;20026;-82
2021/12/31 12:14:51;;;;;;;4.63;3.22;;;12.10;99.90;;;;;;4989671;28;20395;-86
2021/12/31 12:17:29;;;;;;;6.03;2.95;;;12.30;99.90;;;;;;4987545;28;20122;-80
2021/12/31 12:19:57;;;;;;;5.75;3.35;;;12.30;99.90;;;;;;4977146;28;20037;-82
2021/12/31 12:22:32;;;;;;;4.70;3.58;;;12.30;99.90;;;;;;4981728;28;20065;-83
2021/12/31 12:25:03;;;;;;;4.93;2.95;;;12.40;99.90;;;;;;4968668;28;20031;-82
2021/12/31 12:27:29;;;;;;;4.00;2.95;;;12.40;99.90;;;;;;4990220;28;20467;-83
2021/12/31 12:29:59;;;;;;;3.28;2.30;;;12.50;99.90;;;;;;4993618;28;20026;-83
2021/12/31 12:32:37;;;;;;;6.78;2.95;;;12.50;99.90;;;;;;4986594;28;20066;-83
2021/12/31 12:35:21;;;;;;;6.90;3.08;;;12.60;99.90;;;;;;4988343;28;20042;-83
2021/12/31 12:37:58;;;;;;;4.43;2.88;;;12.60;99.90;;;;;;4986661;28;20029;-83
2021/12/31 12:40:50;;;;;;;3.95;3.33;;;12.70;99.90;;;;;;4990234;28;20042;-83
2021/12/31 12:43:43;;;;;;;4.18;2.78;;;12.70;99.90;;;;;;4995767;28;20071;-83
2021/12/31 12:46:14;;;;;;;4.90;2.78;;;12.80;99.90;;;;;;4993840;28;20022;-82
2021/12/31 12:48:43;;;;;;;5.47;3.25;;;12.80;99.90;;;;;;4974302;28;20481;-83
2021/12/31 12:51:14;;;;;;;6.13;2.83;;;12.80;99.90;;;;;;4991808;28;20022;-83
2021/12/31 12:53:43;;;;;;;5.80;2.80;;;12.80;99.90;;;;;;4993415;28;20068;-83
2021/12/31 12:56:10;;;;;;;4.60;2.80;;;12.80;99.90;;;;;;4969604;28;20034;-83
2021/12/31 12:59:03;;;;;;;4.63;2.90;;;12.70;99.90;;;;;;4993113;28;20026;-82
2021/12/31 13:01:36;;;;;;;3.80;3.05;;;12.70;99.90;;;;;;4984273;28;20050;-82
2021/12/31 13:04:03;;;;;;;;;;;12.80;99.90;;;;;;4993631;28;20026;-82